Terminal Aerodrome Forecast
Issued by NWS Cleveland, OH

Home | Current Version | Previous Version | Graphics & Text | Print | Product List | Glossary On
Versions: 1 2 3 4 5 6 7 8 9 10 11 12 13 14 15 16 17 18
219
FTUS41 KCLE 250900 AAA
TAFERI
TAF AMD
KERI 250900Z 2509/2606 19008KT P6SM VCSH BKN025 OVC045
      TEMPO 2509/2513 5SM -SHRA BR OVC025
     FM251500 23008KT P6SM SCT025 BKN045
     FM252000 24010KT P6SM VCSH BKN045
      TEMPO 2522/2602 4SM TSRA BR OVC025CB
     FM260200 21008KT P6SM SCT025 BKN080=

USA.gov is the U.S. government's official web portal to all federal, state and local government web resources and services.